Pelham, Massachusetts
Current Conditions -  °F | °C
As of 12:58 PM on Tuesday 21 Oct 2014 (Local Time) from KCEF Reporting Station
Broken Clouds Broken Clouds  
Wind Chill: 59°   Ceiling: 9000
Heat Index: 59°   Visibility: 10mi
Dew Point: 48°   Wind: 8mph
Humidity: 68%   Direction: 350°N
Pressure: 29.91"   Gusts: NA
Location:  42.3773°N, 72.4671°W
Report Text: KCEF 211658Z 35007KT 10SM FEW045 BKN090 BKN180 15/09 A2991 RMK AO2A SLP134 T01500091
Loading
Personal Weather Stations






























Interactive Weather Map
Tropical Storm Tracking
New forecast layout! Learn more

10-Day Weather Forecast

Advertisements
Track Severe Weather on mobile